Terminal Aerodrome Forecast
Issued by NWS Cleveland, OH

Home | Current Version | Previous Version | Graphics & Text | Print | Product List | Glossary On
Versions: 1 2 3 4 5 6 7 8 9 10 11 12 13 14 15 16 17 18 19 20 21 22 23
000
FTUS41 KCLE 180500
TAFMFD
TAF
KMFD 180525Z 1806/1906 27011G18KT P6SM OVC020
     FM181400 30012G18KT P6SM OVC025
     FM190000 32012G20KT P6SM SCT025 OVC050
      TEMPO 1900/1904 BKN025
     FM190400 32006KT P6SM SCT050 BKN100=

USA.gov is the U.S. government's official web portal to all federal, state and local government web resources and services.